createdAt,value
2023-05-06T00:02:08.367Z,13.90
2023-05-06T00:04:35.087Z,13.90
2023-05-06T00:07:02.385Z,13.90
2023-05-06T00:09:29.184Z,13.80
2023-05-06T00:11:56.111Z,13.80
2023-05-06T00:14:22.941Z,13.80
2023-05-06T00:16:51.045Z,13.70
2023-05-06T00:19:17.800Z,13.60
2023-05-06T00:21:44.520Z,13.60
2023-05-06T00:24:11.471Z,13.60
2023-05-06T00:26:38.182Z,13.60
2023-05-06T00:29:04.947Z,13.60
2023-05-06T00:31:31.654Z,13.50
2023-05-06T00:33:58.477Z,13.40
2023-05-06T00:36:25.150Z,13.30
2023-05-06T00:38:51.813Z,13.20
2023-05-06T00:41:18.698Z,13.10
2023-05-06T00:43:45.671Z,13.30
2023-05-06T00:46:15.476Z,13.30
2023-05-06T00:48:42.785Z,13.40
2023-05-06T00:51:09.524Z,13.40
2023-05-06T00:53:36.311Z,13.40
2023-05-06T00:56:03.618Z,13.40
2023-05-06T00:58:30.605Z,13.40
2023-05-06T01:00:57.328Z,13.40
2023-05-06T01:03:24.259Z,13.40
2023-05-06T01:05:54.012Z,13.40
2023-05-06T01:08:28.361Z,13.30
2023-05-06T01:10:55.044Z,13.20
2023-05-06T01:13:30.164Z,13.20
2023-05-06T01:15:58.032Z,13.20
2023-05-06T01:18:26.305Z,13.20
2023-05-06T01:20:54.375Z,13.10
2023-05-06T01:23:21.118Z,13.10
2023-05-06T01:25:47.812Z,13.20
2023-05-06T01:28:14.643Z,13.10
2023-05-06T01:30:53.410Z,13.10
2023-05-06T01:33:40.647Z,13.10
2023-05-06T01:36:08.204Z,13.10
2023-05-06T01:38:37.820Z,13.10
2023-05-06T01:41:04.729Z,13.00
2023-05-06T01:43:34.243Z,13.00
2023-05-06T01:46:01.474Z,12.90
2023-05-06T01:48:29.280Z,12.80
2023-05-06T01:50:56.277Z,12.80
2023-05-06T01:53:22.949Z,12.80
2023-05-06T01:55:49.686Z,12.80
2023-05-06T01:58:16.362Z,12.80
2023-05-06T02:00:42.984Z,12.80
2023-05-06T02:03:09.730Z,12.70
2023-05-06T02:05:36.453Z,12.70
2023-05-06T02:08:03.125Z,12.70
2023-05-06T02:10:29.816Z,12.50
2023-05-06T02:12:56.548Z,12.50
2023-05-06T02:15:23.220Z,12.50
2023-05-06T02:17:49.977Z,12.40
2023-05-06T02:20:16.690Z,12.30
2023-05-06T02:22:43.342Z,12.30
2023-05-06T02:25:10.711Z,12.30
2023-05-06T02:27:37.544Z,12.40
2023-05-06T02:30:06.532Z,12.40
2023-05-06T02:32:33.279Z,12.40
2023-05-06T02:34:59.964Z,12.30
2023-05-06T02:37:26.598Z,12.40
2023-05-06T02:39:53.296Z,12.30
2023-05-06T02:42:21.165Z,12.20
2023-05-06T02:44:48.008Z,12.20
2023-05-06T02:47:14.794Z,12.10
2023-05-06T02:49:41.432Z,12.20
2023-05-06T02:52:08.263Z,12.10
2023-05-06T02:54:34.956Z,12.10
2023-05-06T02:57:01.715Z,12.10
2023-05-06T02:59:28.357Z,12.10
2023-05-06T03:01:55.008Z,12.10
2023-05-06T03:04:21.734Z,12.10
2023-05-06T03:06:48.481Z,12.10
2023-05-06T03:09:15.499Z,11.90
2023-05-06T03:11:42.174Z,11.80
2023-05-06T03:14:08.848Z,11.90
2023-05-06T03:16:35.692Z,12.00
2023-05-06T03:19:03.788Z,12.00
2023-05-06T03:21:30.622Z,12.10
2023-05-06T03:23:57.460Z,12.10
2023-05-06T03:26:24.126Z,12.00
2023-05-06T03:28:50.950Z,11.80
2023-05-06T03:31:17.636Z,11.90
2023-05-06T03:33:44.292Z,11.90
2023-05-06T03:36:12.770Z,12.00
2023-05-06T03:38:40.263Z,12.00
2023-05-06T03:41:06.963Z,11.90
2023-05-06T03:43:33.627Z,11.80
2023-05-06T03:46:00.366Z,11.80
2023-05-06T03:48:27.034Z,11.80
2023-05-06T03:50:53.743Z,11.80
2023-05-06T03:53:20.412Z,11.90
2023-05-06T03:55:47.127Z,11.90
2023-05-06T03:58:13.765Z,11.80
2023-05-06T04:00:40.443Z,11.80
2023-05-06T04:03:07.182Z,11.70
2023-05-06T04:05:33.907Z,11.60
2023-05-06T04:08:00.829Z,11.60
2023-05-06T04:10:27.532Z,11.50
2023-05-06T04:12:54.261Z,11.60
2023-05-06T04:15:21.082Z,11.70
2023-05-06T04:17:47.926Z,11.70
2023-05-06T04:20:14.777Z,11.80
2023-05-06T04:22:41.458Z,11.90
2023-05-06T04:25:08.768Z,11.90
2023-05-06T04:27:35.938Z,11.90
2023-05-06T04:30:02.641Z,11.90
2023-05-06T04:32:29.384Z,11.90
2023-05-06T04:34:56.857Z,12.00
2023-05-06T04:37:23.479Z,12.00
2023-05-06T04:39:50.137Z,12.20
2023-05-06T04:42:16.794Z,12.20
2023-05-06T04:44:43.509Z,12.20
2023-05-06T04:47:10.204Z,12.20
2023-05-06T04:49:36.997Z,12.20
2023-05-06T04:52:04.169Z,12.20
2023-05-06T04:54:30.845Z,12.20
2023-05-06T04:56:57.574Z,12.20
2023-05-06T04:59:24.252Z,12.30
2023-05-06T05:01:51.017Z,12.30
2023-05-06T05:04:17.767Z,12.40
2023-05-06T05:06:44.693Z,12.50
2023-05-06T05:09:11.349Z,12.40
2023-05-06T05:11:38.480Z,12.50
2023-05-06T05:14:05.386Z,12.70
2023-05-06T05:16:32.281Z,12.80
2023-05-06T05:19:00.814Z,12.90
2023-05-06T05:21:28.989Z,13.10
2023-05-06T05:23:55.648Z,13.20
2023-05-06T05:26:22.292Z,13.20
2023-05-06T05:28:48.985Z,13.20
2023-05-06T05:31:15.789Z,13.30
2023-05-06T05:33:42.535Z,13.30
2023-05-06T05:36:09.430Z,13.30
2023-05-06T05:38:36.105Z,13.30
2023-05-06T05:41:02.958Z,13.40
2023-05-06T05:43:31.344Z,13.40
2023-05-06T05:45:58.190Z,13.50
2023-05-06T05:48:24.852Z,13.50
2023-05-06T05:50:51.545Z,13.50
2023-05-06T05:53:18.268Z,13.50
2023-05-06T05:55:45.008Z,13.40
2023-05-06T05:58:11.812Z,13.50
2023-05-06T06:00:38.642Z,13.60
2023-05-06T06:03:05.468Z,13.60
2023-05-06T06:05:32.288Z,13.60
2023-05-06T06:07:59.116Z,13.80
2023-05-06T06:10:26.253Z,14.00
2023-05-06T06:12:52.923Z,14.20
2023-05-06T06:15:19.993Z,14.30
2023-05-06T06:17:46.651Z,14.40
2023-05-06T06:20:13.784Z,14.60
2023-05-06T06:22:41.059Z,14.60
2023-05-06T06:25:08.020Z,14.60
2023-05-06T06:27:36.092Z,14.70
2023-05-06T06:30:03.147Z,14.80
2023-05-06T06:32:29.860Z,15.00
2023-05-06T06:34:56.569Z,15.20
2023-05-06T06:37:23.247Z,15.50
2023-05-06T06:39:49.918Z,15.60
2023-05-06T06:42:16.597Z,15.70
2023-05-06T06:44:43.258Z,15.70
2023-05-06T06:47:09.910Z,15.80
2023-05-06T06:49:36.673Z,15.80
2023-05-06T06:52:03.393Z,15.70
2023-05-06T06:54:30.081Z,15.70
2023-05-06T06:56:57.430Z,15.70
2023-05-06T06:59:24.226Z,15.80
2023-05-06T07:01:50.947Z,15.90
2023-05-06T07:04:17.970Z,16.10
2023-05-06T07:06:45.191Z,16.30
2023-05-06T07:09:12.266Z,16.60
2023-05-06T07:11:39.171Z,16.70
2023-05-06T07:14:06.031Z,16.90
2023-05-06T07:16:32.840Z,17.00
2023-05-06T07:19:00.325Z,17.00
2023-05-06T07:21:27.242Z,17.10
2023-05-06T07:23:53.988Z,17.00
2023-05-06T07:26:21.425Z,17.10
2023-05-06T07:28:48.113Z,17.10
2023-05-06T07:31:16.392Z,17.20
2023-05-06T07:33:43.175Z,17.20
2023-05-06T07:36:09.901Z,17.30
2023-05-06T07:38:36.558Z,17.30
2023-05-06T07:41:03.439Z,17.40
2023-05-06T07:43:30.195Z,17.30
2023-05-06T07:46:03.306Z,17.40
2023-05-06T07:48:30.573Z,17.40
2023-05-06T07:50:57.482Z,17.60
2023-05-06T07:53:24.205Z,17.70
2023-05-06T07:55:52.476Z,17.80
2023-05-06T07:58:19.200Z,18.00
2023-05-06T08:00:45.880Z,17.90
2023-05-06T08:03:12.658Z,18.00
2023-05-06T08:05:39.607Z,18.00
2023-05-06T08:08:06.364Z,18.00
2023-05-06T08:10:33.109Z,17.90
2023-05-06T08:12:59.821Z,17.90
2023-05-06T08:15:26.598Z,18.00
2023-05-06T08:17:53.447Z,18.00
2023-05-06T08:20:21.027Z,18.00
2023-05-06T08:22:47.721Z,18.10
2023-05-06T08:25:14.395Z,18.10
2023-05-06T08:27:41.122Z,18.10
2023-05-06T08:30:08.143Z,18.00
2023-05-06T08:32:34.826Z,17.90
2023-05-06T08:35:01.585Z,17.80
2023-05-06T08:37:30.515Z,17.60
2023-05-06T08:39:59.245Z,17.40
2023-05-06T08:42:28.005Z,17.40
2023-05-06T08:44:55.484Z,17.50
2023-05-06T08:47:22.381Z,17.60
2023-05-06T08:49:49.298Z,17.70
2023-05-06T08:52:16.241Z,18.00
2023-05-06T08:54:43.790Z,18.10
2023-05-06T08:57:14.079Z,18.40
2023-05-06T08:59:41.623Z,18.50
2023-05-06T09:02:08.516Z,18.60
2023-05-06T09:04:35.281Z,18.60
2023-05-06T09:07:02.021Z,18.70
2023-05-06T09:09:28.765Z,18.90
2023-05-06T09:11:57.607Z,19.10
2023-05-06T09:14:24.574Z,19.20
2023-05-06T09:16:52.549Z,19.00
2023-05-06T09:19:20.158Z,19.00
2023-05-06T09:21:47.742Z,18.80
2023-05-06T09:24:15.381Z,18.70
2023-05-06T09:26:43.018Z,18.60
2023-05-06T09:29:09.897Z,18.60
2023-05-06T09:31:44.047Z,18.50
2023-05-06T09:34:11.255Z,18.60
2023-05-06T09:36:38.012Z,18.90
2023-05-06T09:39:05.337Z,19.10
2023-05-06T09:41:32.259Z,19.20
2023-05-06T09:43:59.546Z,19.00
2023-05-06T09:46:28.018Z,19.20
2023-05-06T09:48:56.377Z,18.90
2023-05-06T09:51:23.303Z,18.90
2023-05-06T09:53:51.424Z,18.90
2023-05-06T09:56:19.327Z,18.80
2023-05-06T09:58:47.199Z,19.00
2023-05-06T10:01:19.204Z,19.00
2023-05-06T10:03:53.313Z,19.10
2023-05-06T10:06:22.975Z,19.00
2023-05-06T10:08:50.146Z,18.80
2023-05-06T10:11:17.925Z,18.80
2023-05-06T10:13:44.863Z,19.20
2023-05-06T10:16:13.352Z,19.60
2023-05-06T10:18:41.685Z,20.10
2023-05-06T10:21:10.002Z,20.30
2023-05-06T10:23:52.188Z,19.90
2023-05-06T10:26:20.007Z,19.50
2023-05-06T10:28:49.541Z,19.50
2023-05-06T10:31:16.359Z,19.30
2023-05-06T10:33:45.233Z,19.50
2023-05-06T10:36:25.998Z,19.90
2023-05-06T10:38:56.893Z,20.00
2023-05-06T10:41:26.077Z,19.90
2023-05-06T10:43:56.798Z,19.90
2023-05-06T10:46:24.526Z,20.10
2023-05-06T10:49:11.677Z,20.10
2023-05-06T10:51:39.184Z,19.90
2023-05-06T10:54:18.092Z,19.70
2023-05-06T10:56:50.997Z,19.60
2023-05-06T10:59:21.425Z,19.40
2023-05-06T11:02:07.830Z,19.40
2023-05-06T11:04:34.688Z,19.30
2023-05-06T11:07:11.716Z,19.20
2023-05-06T11:09:54.960Z,19.10
2023-05-06T11:12:22.015Z,19.10
2023-05-06T11:14:49.222Z,19.20
2023-05-06T11:17:32.835Z,19.10
2023-05-06T11:20:18.999Z,18.90
2023-05-06T11:22:45.718Z,19.00
2023-05-06T11:25:12.553Z,19.10
2023-05-06T11:27:39.730Z,19.10
2023-05-06T11:30:06.909Z,19.10
2023-05-06T11:32:34.097Z,19.10
2023-05-06T11:35:00.851Z,19.10
2023-05-06T11:37:28.331Z,19.30
2023-05-06T11:39:55.577Z,19.30
2023-05-06T11:42:26.295Z,19.60
2023-05-06T11:44:56.186Z,19.80
2023-05-06T11:47:23.416Z,19.90
2023-05-06T11:49:52.046Z,19.70
2023-05-06T11:52:19.666Z,19.60
2023-05-06T11:54:47.942Z,19.60
2023-05-06T11:57:15.774Z,19.10
2023-05-06T11:59:42.709Z,19.00
2023-05-06T12:02:10.416Z,18.90
2023-05-06T12:04:44.569Z,18.90
2023-05-06T12:07:12.240Z,18.80
2023-05-06T12:09:43.021Z,18.70
2023-05-06T12:12:10.475Z,18.80
2023-05-06T12:14:37.477Z,19.00
2023-05-06T12:17:04.644Z,19.40
2023-05-06T12:19:32.113Z,19.60
2023-05-06T12:22:14.848Z,19.60
2023-05-06T12:24:41.511Z,19.80
2023-05-06T12:27:08.180Z,20.00
2023-05-06T12:29:35.218Z,20.30
2023-05-06T12:32:11.556Z,20.60
2023-05-06T12:34:41.504Z,20.50
2023-05-06T12:37:08.721Z,20.40
2023-05-06T12:39:36.193Z,20.50
2023-05-06T12:42:03.352Z,20.60
2023-05-06T12:44:31.368Z,20.50
2023-05-06T12:46:58.854Z,20.70
2023-05-06T12:49:25.917Z,20.70
2023-05-06T12:52:05.837Z,20.60
2023-05-06T12:54:32.663Z,20.40
2023-05-06T12:56:59.491Z,20.30
2023-05-06T12:59:26.755Z,20.60
2023-05-06T13:01:53.453Z,20.80
2023-05-06T13:04:20.963Z,21.10
2023-05-06T13:06:47.673Z,21.20
2023-05-06T13:09:15.371Z,21.40
2023-05-06T13:11:42.246Z,21.20
2023-05-06T13:14:09.119Z,21.20
2023-05-06T13:16:35.924Z,21.20
2023-05-06T13:19:03.057Z,21.40
2023-05-06T13:21:29.714Z,21.30
2023-05-06T13:23:56.371Z,21.60
2023-05-06T13:26:23.064Z,21.50
2023-05-06T13:28:49.703Z,21.50
2023-05-06T13:31:16.488Z,21.40
2023-05-06T13:33:43.826Z,21.20
2023-05-06T13:36:10.623Z,21.00
2023-05-06T13:38:37.389Z,20.70
2023-05-06T13:41:04.184Z,20.60
2023-05-06T13:43:30.876Z,20.50
2023-05-06T13:45:57.608Z,20.60
2023-05-06T13:48:24.345Z,20.80
2023-05-06T13:50:51.014Z,20.90
2023-05-06T13:53:17.749Z,20.90
2023-05-06T13:55:44.436Z,20.80
2023-05-06T13:58:11.270Z,20.80
2023-05-06T14:00:38.439Z,20.90
2023-05-06T14:03:05.210Z,21.00
2023-05-06T14:05:32.362Z,20.80
2023-05-06T14:07:59.036Z,20.90
2023-05-06T14:10:25.768Z,21.00
2023-05-06T14:12:52.544Z,21.20
2023-05-06T14:15:19.284Z,21.50
2023-05-06T14:17:45.934Z,21.80
2023-05-06T14:20:12.662Z,21.80
2023-05-06T14:22:40.654Z,21.80
2023-05-06T14:25:07.831Z,21.80
2023-05-06T14:27:35.084Z,21.70
2023-05-06T14:30:02.408Z,21.80
2023-05-06T14:32:29.282Z,21.90
2023-05-06T14:34:56.318Z,21.90
2023-05-06T14:37:23.006Z,21.80
2023-05-06T14:39:49.951Z,21.70
2023-05-06T14:42:16.674Z,21.50
2023-05-06T14:44:45.181Z,21.20
2023-05-06T14:47:11.835Z,21.10
2023-05-06T14:49:38.559Z,21.10
2023-05-06T14:52:05.220Z,21.10
2023-05-06T14:54:32.117Z,21.10
2023-05-06T14:57:01.340Z,21.00
2023-05-06T14:59:28.334Z,21.00
2023-05-06T15:01:56.001Z,21.20
2023-05-06T15:04:22.683Z,21.30
2023-05-06T15:06:49.311Z,21.40
2023-05-06T15:09:16.003Z,21.60
2023-05-06T15:11:44.131Z,21.80
2023-05-06T15:14:10.825Z,21.70
2023-05-06T15:16:37.547Z,21.60
2023-05-06T15:19:04.477Z,21.50
2023-05-06T15:21:31.625Z,21.10
2023-05-06T15:23:58.391Z,20.90
2023-05-06T15:26:25.139Z,20.80
2023-05-06T15:28:51.844Z,20.70
2023-05-06T15:31:18.496Z,20.60
2023-05-06T15:33:45.208Z,20.70
2023-05-06T15:36:12.086Z,20.70
2023-05-06T15:38:50.749Z,20.80
2023-05-06T15:41:17.687Z,20.80
2023-05-06T15:43:44.489Z,21.00
2023-05-06T15:46:11.498Z,21.40
2023-05-06T15:48:38.206Z,21.50
2023-05-06T15:51:04.879Z,21.50
2023-05-06T15:53:31.527Z,21.80
2023-05-06T15:56:07.515Z,22.00
2023-05-06T15:58:43.741Z,21.70
2023-05-06T16:01:10.933Z,21.30
2023-05-06T16:03:38.424Z,21.10
2023-05-06T16:06:05.376Z,20.90
2023-05-06T16:08:32.192Z,20.80
2023-05-06T16:10:58.851Z,20.70
2023-05-06T16:13:26.114Z,20.70
2023-05-06T16:15:52.982Z,20.70
2023-05-06T16:18:19.674Z,20.80
2023-05-06T16:20:46.442Z,20.80
2023-05-06T16:23:14.336Z,20.90
2023-05-06T16:25:41.353Z,20.90
2023-05-06T16:28:08.994Z,20.90
2023-05-06T16:30:36.092Z,20.80
2023-05-06T16:33:03.968Z,20.60
2023-05-06T16:35:31.204Z,20.50
2023-05-06T16:37:57.872Z,20.40
2023-05-06T16:40:24.556Z,20.30
2023-05-06T16:42:51.343Z,20.20
2023-05-06T16:45:18.075Z,20.30
2023-05-06T16:47:44.974Z,20.70
2023-05-06T16:50:12.199Z,21.00
2023-05-06T16:52:39.157Z,21.10
2023-05-06T16:55:06.488Z,21.00
2023-05-06T16:57:33.252Z,21.30
2023-05-06T17:00:00.493Z,21.50
2023-05-06T17:02:27.432Z,21.50
2023-05-06T17:04:54.212Z,21.60
2023-05-06T17:07:21.091Z,21.50
2023-05-06T17:09:47.783Z,21.30
2023-05-06T17:12:14.657Z,21.10
2023-05-06T17:14:42.778Z,21.00
2023-05-06T17:17:09.511Z,20.80
2023-05-06T17:19:36.302Z,20.60
2023-05-06T17:22:02.973Z,20.40
2023-05-06T17:24:29.652Z,20.40
2023-05-06T17:26:56.481Z,20.50
2023-05-06T17:29:23.196Z,20.40
2023-05-06T17:31:50.157Z,20.30
2023-05-06T17:34:17.491Z,20.10
2023-05-06T17:36:44.244Z,20.00
2023-05-06T17:39:10.946Z,19.80
2023-05-06T17:41:37.683Z,19.70
2023-05-06T17:44:04.536Z,19.60
2023-05-06T17:46:31.374Z,19.60
2023-05-06T17:48:58.097Z,19.50
2023-05-06T17:51:24.734Z,19.50
2023-05-06T17:53:51.684Z,19.40
2023-05-06T17:56:20.154Z,19.30
2023-05-06T17:58:49.912Z,19.20
2023-05-06T18:01:16.670Z,19.00
2023-05-06T18:03:44.056Z,18.90
2023-05-06T18:06:13.634Z,18.70
2023-05-06T18:08:40.372Z,18.70
2023-05-06T18:11:07.048Z,18.60
2023-05-06T18:13:35.196Z,18.50
2023-05-06T18:16:02.168Z,18.40
2023-05-06T18:18:28.944Z,18.40
2023-05-06T18:20:55.863Z,18.30
2023-05-06T18:23:22.541Z,18.30
2023-05-06T18:25:49.263Z,18.20
2023-05-06T18:28:16.876Z,18.10
2023-05-06T18:30:43.592Z,17.90
2023-05-06T18:33:10.318Z,17.80
2023-05-06T18:35:37.046Z,17.70
2023-05-06T18:38:03.797Z,17.50
2023-05-06T18:40:31.118Z,17.40
2023-05-06T18:42:57.900Z,17.30
2023-05-06T18:45:24.594Z,17.20
2023-05-06T18:47:51.599Z,17.10
2023-05-06T18:50:18.439Z,17.00
2023-05-06T18:52:45.137Z,16.90
2023-05-06T18:55:12.133Z,16.90
2023-05-06T18:57:39.549Z,16.80
2023-05-06T19:00:07.332Z,16.80
2023-05-06T19:02:34.119Z,16.80
2023-05-06T19:05:00.943Z,16.70
2023-05-06T19:07:27.619Z,16.60
2023-05-06T19:09:54.956Z,16.60
2023-05-06T19:12:22.775Z,16.50
2023-05-06T19:14:49.611Z,16.50
2023-05-06T19:17:16.275Z,16.50
2023-05-06T19:19:45.678Z,16.60
2023-05-06T19:22:13.801Z,16.60
2023-05-06T19:24:41.076Z,16.60
2023-05-06T19:27:07.813Z,16.60
2023-05-06T19:29:34.892Z,16.70
2023-05-06T19:32:02.491Z,16.70
2023-05-06T19:34:29.467Z,16.70
2023-05-06T19:36:56.140Z,16.70
2023-05-06T19:39:23.020Z,16.70
2023-05-06T19:41:49.749Z,16.70
2023-05-06T19:44:16.384Z,16.70
2023-05-06T19:46:43.215Z,16.60
2023-05-06T19:49:09.951Z,16.60
2023-05-06T19:51:36.798Z,16.50
2023-05-06T19:54:03.641Z,16.50
2023-05-06T19:56:30.454Z,16.40
2023-05-06T19:58:57.191Z,16.40
2023-05-06T20:01:24.412Z,16.30
2023-05-06T20:03:51.435Z,16.30
2023-05-06T20:06:18.198Z,16.20
2023-05-06T20:08:44.863Z,16.20
2023-05-06T20:11:11.564Z,16.20
2023-05-06T20:13:38.425Z,16.10
2023-05-06T20:16:05.307Z,16.10
2023-05-06T20:18:32.249Z,16.00
2023-05-06T20:20:59.134Z,16.00
2023-05-06T20:23:26.014Z,15.90
2023-05-06T20:25:53.158Z,15.80
2023-05-06T20:28:19.860Z,15.80
2023-05-06T20:30:47.661Z,15.80
2023-05-06T20:33:14.383Z,15.80
2023-05-06T20:35:41.128Z,15.80
2023-05-06T20:38:09.348Z,15.70
2023-05-06T20:40:36.911Z,15.60
2023-05-06T20:43:03.857Z,15.60
2023-05-06T20:45:31.463Z,15.60
2023-05-06T20:47:58.671Z,15.60
2023-05-06T20:50:25.781Z,15.60
2023-05-06T20:52:54.278Z,15.50
2023-05-06T20:55:23.237Z,15.40
2023-05-06T20:57:50.124Z,15.40
2023-05-06T21:00:17.079Z,15.30
2023-05-06T21:02:43.929Z,15.30
2023-05-06T21:05:11.080Z,15.30
2023-05-06T21:07:38.071Z,15.30
2023-05-06T21:10:06.823Z,15.30
2023-05-06T21:12:33.645Z,15.30
2023-05-06T21:15:00.761Z,15.30
2023-05-06T21:17:28.039Z,15.20
2023-05-06T21:19:54.786Z,15.10
2023-05-06T21:22:25.681Z,15.10
2023-05-06T21:24:52.385Z,15.00
2023-05-06T21:27:19.401Z,15.00
2023-05-06T21:29:46.629Z,14.90
2023-05-06T21:32:13.327Z,14.80
2023-05-06T21:34:39.989Z,14.80
2023-05-06T21:37:06.652Z,14.80
2023-05-06T21:39:33.272Z,14.80
2023-05-06T21:41:59.906Z,14.80
2023-05-06T21:44:26.697Z,14.70
2023-05-06T21:46:53.439Z,14.70
2023-05-06T21:49:22.162Z,14.70
2023-05-06T21:51:48.969Z,14.60
2023-05-06T21:54:17.096Z,14.60
2023-05-06T21:56:43.895Z,14.60
2023-05-06T21:59:10.668Z,14.60
2023-05-06T22:01:37.439Z,14.60
2023-05-06T22:04:09.378Z,14.60
2023-05-06T22:06:36.169Z,14.60
2023-05-06T22:09:04.480Z,14.50
2023-05-06T22:11:31.203Z,14.60
2023-05-06T22:13:57.914Z,14.40
2023-05-06T22:16:24.610Z,14.30
2023-05-06T22:18:51.930Z,14.10
2023-05-06T22:21:18.599Z,14.10
2023-05-06T22:23:45.474Z,14.00
2023-05-06T22:26:12.251Z,14.00
2023-05-06T22:28:38.930Z,14.00
2023-05-06T22:31:05.780Z,13.90
2023-05-06T22:33:32.465Z,14.00
2023-05-06T22:35:59.183Z,14.00
2023-05-06T22:38:25.898Z,14.10
2023-05-06T22:40:52.578Z,14.10
2023-05-06T22:43:19.236Z,14.10
2023-05-06T22:45:46.013Z,14.00
2023-05-06T22:48:12.724Z,14.10
2023-05-06T22:50:39.421Z,14.10
2023-05-06T22:53:14.417Z,14.00
2023-05-06T22:55:42.337Z,14.00
2023-05-06T22:58:09.016Z,14.00
2023-05-06T23:00:35.817Z,13.90
2023-05-06T23:03:02.928Z,13.90
2023-05-06T23:05:29.662Z,13.90
2023-05-06T23:07:56.297Z,13.80
2023-05-06T23:10:22.935Z,13.80
2023-05-06T23:12:49.625Z,13.80
2023-05-06T23:15:16.400Z,13.80
2023-05-06T23:17:43.084Z,13.80
2023-05-06T23:20:11.866Z,13.70
2023-05-06T23:22:38.578Z,13.60
2023-05-06T23:25:05.577Z,13.50
2023-05-06T23:27:32.254Z,13.50
2023-05-06T23:29:59.044Z,13.50
2023-05-06T23:32:25.786Z,13.40
2023-05-06T23:34:52.552Z,13.40
2023-05-06T23:37:19.225Z,13.40
2023-05-06T23:39:47.602Z,13.40
2023-05-06T23:42:14.345Z,13.40
2023-05-06T23:44:41.109Z,13.40
2023-05-06T23:47:07.910Z,13.40
2023-05-06T23:49:35.356Z,13.40
2023-05-06T23:52:02.090Z,13.50
2023-05-06T23:54:28.961Z,13.50
2023-05-06T23:56:55.832Z,13.40
2023-05-06T23:59:22.558Z,13.40
